createdAt,value
2016-12-29T00:00:02.292Z,1036.43
2016-12-29T00:00:28.397Z,1036.4
2016-12-29T00:00:54.516Z,1036.43
2016-12-29T00:01:20.623Z,1036.42
2016-12-29T00:01:46.748Z,1036.39
2016-12-29T00:02:12.852Z,1036.36
2016-12-29T00:02:38.957Z,1036.33
2016-12-29T00:03:05.077Z,1036.33
2016-12-29T00:03:31.191Z,1036.33
2016-12-29T00:03:57.297Z,1036.33
2016-12-29T00:04:23.423Z,1036.29
2016-12-29T00:04:49.537Z,1036.33
2016-12-29T00:05:15.645Z,1036.26
2016-12-29T00:05:41.763Z,1036.29
2016-12-29T00:06:07.882Z,1036.28
2016-12-29T00:06:33.981Z,1036.28
2016-12-29T00:07:00.094Z,1036.26
2016-12-29T00:07:26.220Z,1036.25
2016-12-29T00:07:52.323Z,1036.22
2016-12-29T00:08:18.437Z,1036.26
2016-12-29T00:08:44.557Z,1036.25
2016-12-29T00:09:10.665Z,1036.22
2016-12-29T00:09:36.772Z,1036.22
2016-12-29T00:10:02.897Z,1036.2
2016-12-29T00:10:29.008Z,1036.21
2016-12-29T00:10:55.112Z,1036.21
2016-12-29T00:11:21.237Z,1036.25
2016-12-29T00:11:47.345Z,1036.2
2016-12-29T00:12:13.453Z,1036.22
2016-12-29T00:12:39.564Z,1036.23
2016-12-29T00:13:05.664Z,1036.21
2016-12-29T00:13:31.793Z,1036.27
2016-12-29T00:13:57.899Z,1036.26
2016-12-29T00:14:24.009Z,1036.22
2016-12-29T00:14:50.128Z,1036.28
2016-12-29T00:15:16.245Z,1036.21
2016-12-29T00:15:42.347Z,1036.2
2016-12-29T00:16:08.467Z,1036.2
2016-12-29T00:16:34.584Z,1036.22
2016-12-29T00:17:00.687Z,1036.2
2016-12-29T00:17:26.808Z,1036.21
2016-12-29T00:17:52.911Z,1036.17
2016-12-29T00:18:19.036Z,1036.2
2016-12-29T00:18:45.152Z,1036.2
2016-12-29T00:19:11.260Z,1036.22
2016-12-29T00:19:37.374Z,1036.2
2016-12-29T00:20:03.493Z,1036.21
2016-12-29T00:20:29.598Z,1036.22
2016-12-29T00:20:55.711Z,1036.21
2016-12-29T00:21:21.833Z,1036.21
2016-12-29T00:21:47.933Z,1036.22
2016-12-29T00:22:14.048Z,1036.21
2016-12-29T00:22:40.165Z,1036.22
2016-12-29T00:23:06.275Z,1036.22
2016-12-29T00:23:32.400Z,1036.18
2016-12-29T00:23:58.496Z,1036.16
2016-12-29T00:24:24.611Z,1036.19
2016-12-29T00:24:50.731Z,1036.17
2016-12-29T00:25:16.838Z,1036.14
2016-12-29T00:25:42.950Z,1036.13
2016-12-29T00:26:09.067Z,1036.17
2016-12-29T00:26:35.178Z,1036.13
2016-12-29T00:27:01.277Z,1036.14
2016-12-29T00:27:27.402Z,1036.15
2016-12-29T00:27:53.518Z,1036.17
2016-12-29T00:28:19.621Z,1036.15
2016-12-29T00:28:45.744Z,1036.15
2016-12-29T00:29:11.854Z,1036.17
2016-12-29T00:29:37.982Z,1036.16
2016-12-29T00:30:04.088Z,1036.16
2016-12-29T00:30:30.198Z,1036.2
2016-12-29T00:30:56.322Z,1036.17
2016-12-29T00:31:22.431Z,1036.18
2016-12-29T00:31:48.541Z,1036.2
2016-12-29T00:32:14.662Z,1036.18
2016-12-29T00:32:40.773Z,1036.18
2016-12-29T00:33:06.880Z,1036.17
2016-12-29T00:33:32.995Z,1036.19
2016-12-29T00:33:59.119Z,1036.17
2016-12-29T00:34:25.223Z,1036.14
2016-12-29T00:34:51.331Z,1036.18
2016-12-29T00:35:17.441Z,1036.19
2016-12-29T00:35:43.563Z,1036.11
2016-12-29T00:36:09.680Z,1036.17
2016-12-29T00:36:35.785Z,1036.15
2016-12-29T00:37:01.933Z,1036.11
2016-12-29T00:37:28.052Z,1036.1
2016-12-29T00:37:54.155Z,1036.06
2016-12-29T00:38:20.275Z,1036.12
2016-12-29T00:38:46.394Z,1036.08
2016-12-29T00:39:12.500Z,1036.09
2016-12-29T00:39:38.605Z,1036.09
2016-12-29T00:40:04.726Z,1036.06
2016-12-29T00:40:30.841Z,1036.11
2016-12-29T00:40:56.963Z,1036.05
2016-12-29T00:41:23.067Z,1036.06
2016-12-29T00:41:49.181Z,1036.05
2016-12-29T00:42:15.305Z,1036.04
2016-12-29T00:42:41.407Z,1036.07
2016-12-29T00:43:07.521Z,1036.06
2016-12-29T00:43:33.639Z,1036.03
2016-12-29T00:43:59.752Z,1036.06
2016-12-29T00:44:25.852Z,1036.07
2016-12-29T00:44:51.982Z,1036.04
2016-12-29T00:45:18.093Z,1036.1
2016-12-29T00:45:44.208Z,1036.12
2016-12-29T00:46:10.316Z,1036.06
2016-12-29T00:46:36.425Z,1036.11
2016-12-29T00:47:02.549Z,1036.11
2016-12-29T00:47:28.658Z,1036.11
2016-12-29T00:47:54.760Z,1036.12
2016-12-29T00:48:20.881Z,1036.12
2016-12-29T00:48:46.993Z,1036.09
2016-12-29T00:49:13.103Z,1036.14
2016-12-29T00:49:39.222Z,1036.11
2016-12-29T00:50:05.338Z,1036.12
2016-12-29T00:50:31.440Z,1036.1
2016-12-29T00:50:57.559Z,1036.09
2016-12-29T00:51:23.682Z,1036.09
2016-12-29T00:51:49.788Z,1036.08
2016-12-29T00:52:15.916Z,1036.09
2016-12-29T00:52:42.027Z,1036.03
2016-12-29T00:53:08.125Z,1036.06
2016-12-29T00:53:34.235Z,1036.08
2016-12-29T00:54:00.357Z,1036.12
2016-12-29T00:54:26.463Z,1036.09
2016-12-29T00:54:52.574Z,1036.1
2016-12-29T00:55:18.695Z,1036.1
2016-12-29T00:55:44.809Z,1036.12
2016-12-29T00:56:10.911Z,1036.15
2016-12-29T00:56:37.034Z,1036.18
2016-12-29T00:57:03.138Z,1036.16
2016-12-29T00:57:29.257Z,1036.14
2016-12-29T00:57:55.369Z,1036.16
2016-12-29T00:58:21.478Z,1036.14
2016-12-29T00:58:47.754Z,1036.15
2016-12-29T00:59:13.870Z,1036.14
2016-12-29T00:59:39.976Z,1036.13
2016-12-29T01:00:06.094Z,1036.15
2016-12-29T01:00:32.204Z,1036.17
2016-12-29T01:00:58.314Z,1036.17
2016-12-29T01:01:24.430Z,1036.17
2016-12-29T01:01:50.557Z,1036.17
2016-12-29T01:02:16.664Z,1036.21
2016-12-29T01:02:42.768Z,1036.19
2016-12-29T01:03:08.872Z,1036.18
2016-12-29T01:03:34.993Z,1036.14
2016-12-29T01:04:01.106Z,1036.15
2016-12-29T01:04:27.206Z,1036.13
2016-12-29T01:04:53.330Z,1036.16
2016-12-29T01:05:19.445Z,1036.16
2016-12-29T01:05:45.552Z,1036.14
2016-12-29T01:06:11.665Z,1036.16
2016-12-29T01:06:37.792Z,1036.15
2016-12-29T01:07:03.891Z,1036.12
2016-12-29T01:07:30.004Z,1036.15
2016-12-29T01:07:56.120Z,1036.16
2016-12-29T01:08:22.243Z,1036.15
2016-12-29T01:08:48.363Z,1036.14
2016-12-29T01:09:14.465Z,1036.13
2016-12-29T01:09:40.581Z,1036.12
2016-12-29T01:10:06.700Z,1036.15
2016-12-29T01:10:32.805Z,1036.14
2016-12-29T01:10:58.917Z,1036.14
2016-12-29T01:11:25.034Z,1036.13
2016-12-29T01:11:51.143Z,1036.14
2016-12-29T01:12:17.245Z,1036.17
2016-12-29T01:12:43.372Z,1036.15
2016-12-29T01:13:09.483Z,1036.15
2016-12-29T01:13:35.585Z,1036.17
2016-12-29T01:14:01.704Z,1036.13
2016-12-29T01:14:27.822Z,1036.16
2016-12-29T01:14:53.928Z,1036.09
2016-12-29T01:15:20.046Z,1036.12
2016-12-29T01:15:46.172Z,1036.08
2016-12-29T01:16:12.273Z,1036.08
2016-12-29T01:16:38.388Z,1036.12
2016-12-29T01:17:04.507Z,1036.08
2016-12-29T01:17:30.612Z,1036.07
2016-12-29T01:17:56.725Z,1036.07
2016-12-29T01:18:22.852Z,1036.08
2016-12-29T01:18:48.958Z,1036.1
2016-12-29T01:19:15.080Z,1036.06
2016-12-29T01:19:41.179Z,1036.08
2016-12-29T01:20:07.292Z,1036.09
2016-12-29T01:20:33.413Z,1036.1
2016-12-29T01:20:59.513Z,1036.07
2016-12-29T01:21:25.630Z,1036.07
2016-12-29T01:21:51.748Z,1036.11
2016-12-29T01:22:17.891Z,1036.09
2016-12-29T01:22:43.995Z,1036.14
2016-12-29T01:23:10.119Z,1036.08
2016-12-29T01:23:36.229Z,1036.1
2016-12-29T01:24:02.328Z,1036.08
2016-12-29T01:24:28.453Z,1036.1
2016-12-29T01:24:54.560Z,1036.13
2016-12-29T01:25:20.677Z,1036.08
2016-12-29T01:25:46.781Z,1036.12
2016-12-29T01:26:12.887Z,1036.1
2016-12-29T01:26:39.013Z,1036.14
2016-12-29T01:27:05.125Z,1036.07
2016-12-29T01:27:31.231Z,1036.08
2016-12-29T01:27:57.350Z,1036.1
2016-12-29T01:28:23.458Z,1036.1
2016-12-29T01:28:49.566Z,1036.16
2016-12-29T01:29:15.682Z,1036.08
2016-12-29T01:29:41.810Z,1036.14
2016-12-29T01:30:07.912Z,1036.11
2016-12-29T01:30:34.026Z,1036.1
2016-12-29T01:31:00.148Z,1036.12
2016-12-29T01:31:26.255Z,1036.12
2016-12-29T01:31:52.370Z,1036.11
2016-12-29T01:32:18.476Z,1036.11
2016-12-29T01:32:44.596Z,1036.09
2016-12-29T01:33:10.718Z,1036.09
2016-12-29T01:33:36.823Z,1036.09
2016-12-29T01:34:02.939Z,1036.08
2016-12-29T01:34:29.062Z,1036.09
2016-12-29T01:34:55.165Z,1036.12
2016-12-29T01:35:21.275Z,1036.03
2016-12-29T01:35:47.402Z,1036.07
2016-12-29T01:36:13.503Z,1036.08
2016-12-29T01:36:39.610Z,1036.09
2016-12-29T01:37:05.742Z,1036.07
2016-12-29T01:37:31.856Z,1036.08
2016-12-29T01:37:57.960Z,1036.06
2016-12-29T01:38:24.082Z,1036.03
2016-12-29T01:38:50.196Z,1036.05
2016-12-29T01:39:16.306Z,1036.02
2016-12-29T01:39:42.424Z,1036.03
2016-12-29T01:40:08.548Z,1035.98
2016-12-29T01:40:34.644Z,1035.98
2016-12-29T01:41:00.761Z,1035.97
2016-12-29T01:41:26.865Z,1035.99
2016-12-29T01:41:52.978Z,1036.02
2016-12-29T01:42:19.095Z,1036.01
2016-12-29T01:42:45.198Z,1036
2016-12-29T01:43:11.315Z,1036
2016-12-29T01:43:37.465Z,1035.97
2016-12-29T01:44:03.565Z,1035.99
2016-12-29T01:44:29.678Z,1035.95
2016-12-29T01:44:55.794Z,1035.97
2016-12-29T01:45:21.901Z,1035.93
2016-12-29T01:45:48.013Z,1035.96
2016-12-29T01:46:14.138Z,1035.95
2016-12-29T01:46:40.241Z,1035.92
2016-12-29T01:47:06.366Z,1035.94
2016-12-29T01:47:32.468Z,1035.95
2016-12-29T01:47:58.587Z,1035.93
2016-12-29T01:48:24.717Z,1035.94
2016-12-29T01:48:50.824Z,1035.92
2016-12-29T01:49:16.930Z,1035.92
2016-12-29T01:49:43.053Z,1035.94
2016-12-29T01:50:09.159Z,1035.93
2016-12-29T01:50:35.267Z,1035.92
2016-12-29T01:51:01.387Z,1035.89
2016-12-29T01:51:27.505Z,1035.96
2016-12-29T01:51:53.605Z,1035.95
2016-12-29T01:52:19.728Z,1035.92
2016-12-29T01:52:45.834Z,1035.96
2016-12-29T01:53:11.956Z,1035.97
2016-12-29T01:53:38.070Z,1035.95
2016-12-29T01:54:04.174Z,1035.98
2016-12-29T01:54:30.298Z,1035.97
2016-12-29T01:54:56.406Z,1035.98
2016-12-29T01:55:22.510Z,1035.97
2016-12-29T01:55:48.630Z,1035.95
2016-12-29T01:56:14.743Z,1035.96
2016-12-29T01:56:40.849Z,1035.99
2016-12-29T01:57:06.965Z,1036
2016-12-29T01:57:33.093Z,1035.96
2016-12-29T01:57:59.197Z,1035.96
2016-12-29T01:58:25.308Z,1035.95
2016-12-29T01:58:51.411Z,1035.94
2016-12-29T01:59:17.583Z,1035.96
2016-12-29T01:59:43.695Z,1036
2016-12-29T02:00:09.805Z,1035.96
2016-12-29T02:00:35.919Z,1035.95
2016-12-29T02:01:02.044Z,1035.98
2016-12-29T02:01:28.143Z,1035.96
2016-12-29T02:01:54.257Z,1035.92
2016-12-29T02:02:20.379Z,1035.93
2016-12-29T02:02:46.479Z,1035.92
2016-12-29T02:03:12.589Z,1035.93
2016-12-29T02:03:38.697Z,1035.92
2016-12-29T02:04:04.819Z,1035.95
2016-12-29T02:04:30.940Z,1035.99
2016-12-29T02:04:57.038Z,1035.93
2016-12-29T02:05:23.152Z,1035.88
2016-12-29T02:05:49.269Z,1035.88
2016-12-29T02:06:15.378Z,1035.88
2016-12-29T02:06:41.486Z,1035.89
2016-12-29T02:07:07.612Z,1035.86
2016-12-29T02:07:33.716Z,1035.83
2016-12-29T02:07:59.824Z,1035.83
2016-12-29T02:08:25.945Z,1035.84
2016-12-29T02:08:52.055Z,1035.87
2016-12-29T02:09:18.173Z,1035.83
2016-12-29T02:09:44.277Z,1035.82
2016-12-29T02:10:10.411Z,1035.83
2016-12-29T02:10:36.537Z,1035.83
2016-12-29T02:11:02.643Z,1035.8
2016-12-29T02:11:28.751Z,1035.82
2016-12-29T02:11:54.870Z,1035.82
2016-12-29T02:12:20.986Z,1035.81
2016-12-29T02:12:47.088Z,1035.83
2016-12-29T02:13:13.209Z,1035.82
2016-12-29T02:13:39.327Z,1035.79
2016-12-29T02:14:05.432Z,1035.82
2016-12-29T02:14:31.552Z,1035.77
2016-12-29T02:14:57.656Z,1035.78
2016-12-29T02:15:23.783Z,1035.77
2016-12-29T02:15:49.898Z,1035.79
2016-12-29T02:16:16.002Z,1035.75
2016-12-29T02:16:42.118Z,1035.77
2016-12-29T02:17:08.229Z,1035.75
2016-12-29T02:17:34.356Z,1035.76
2016-12-29T02:18:00.445Z,1035.76
2016-12-29T02:18:26.573Z,1035.76
2016-12-29T02:18:52.673Z,1035.74
2016-12-29T02:19:18.784Z,1035.76
2016-12-29T02:19:44.907Z,1035.76
2016-12-29T02:20:11.009Z,1035.75
2016-12-29T02:20:37.118Z,1035.79
2016-12-29T02:21:03.246Z,1035.77
2016-12-29T02:21:29.352Z,1035.81
2016-12-29T02:21:55.457Z,1035.8
2016-12-29T02:22:21.580Z,1035.8
2016-12-29T02:22:47.691Z,1035.83
2016-12-29T02:23:13.795Z,1035.81
2016-12-29T02:23:39.911Z,1035.82
2016-12-29T02:24:06.022Z,1035.85
2016-12-29T02:24:32.130Z,1035.81
2016-12-29T02:24:58.248Z,1035.83
2016-12-29T02:25:24.370Z,1035.84
2016-12-29T02:25:50.482Z,1035.85
2016-12-29T02:26:16.592Z,1035.8
2016-12-29T02:26:42.690Z,1035.82
2016-12-29T02:27:08.818Z,1035.8
2016-12-29T02:27:34.931Z,1035.79
2016-12-29T02:28:01.040Z,1035.75
2016-12-29T02:28:27.154Z,1035.77
2016-12-29T02:28:53.273Z,1035.76
2016-12-29T02:29:19.372Z,1035.75
2016-12-29T02:29:45.487Z,1035.73
2016-12-29T02:30:11.604Z,1035.7
2016-12-29T02:30:37.712Z,1035.72
2016-12-29T02:31:03.816Z,1035.73
2016-12-29T02:31:29.926Z,1035.72
2016-12-29T02:31:56.043Z,1035.69
2016-12-29T02:32:22.169Z,1035.72
2016-12-29T02:32:48.265Z,1035.72
2016-12-29T02:33:14.386Z,1035.7
2016-12-29T02:33:40.503Z,1035.74
2016-12-29T02:34:06.607Z,1035.73
2016-12-29T02:34:32.717Z,1035.71
2016-12-29T02:34:58.838Z,1035.71
2016-12-29T02:35:24.948Z,1035.7
2016-12-29T02:35:51.056Z,1035.69
2016-12-29T02:36:17.182Z,1035.69
2016-12-29T02:36:43.293Z,1035.66
2016-12-29T02:37:09.414Z,1035.67
2016-12-29T02:37:35.519Z,1035.64
2016-12-29T02:38:01.628Z,1035.66
2016-12-29T02:38:27.748Z,1035.63
2016-12-29T02:38:53.854Z,1035.64
2016-12-29T02:39:19.963Z,1035.65
2016-12-29T02:39:46.086Z,1035.66
2016-12-29T02:40:12.200Z,1035.64
2016-12-29T02:40:38.304Z,1035.65
2016-12-29T02:41:04.427Z,1035.65
2016-12-29T02:41:30.541Z,1035.68
2016-12-29T02:41:56.645Z,1035.66
2016-12-29T02:42:22.763Z,1035.67
2016-12-29T02:42:48.864Z,1035.68
2016-12-29T02:43:14.984Z,1035.68
2016-12-29T02:43:41.096Z,1035.69
2016-12-29T02:44:07.206Z,1035.64
2016-12-29T02:44:33.326Z,1035.72
2016-12-29T02:44:59.444Z,1035.71
2016-12-29T02:45:25.548Z,1035.7
2016-12-29T02:45:51.670Z,1035.71
2016-12-29T02:46:17.791Z,1035.7
2016-12-29T02:46:43.914Z,1035.69
2016-12-29T02:47:10.001Z,1035.7
2016-12-29T02:47:36.117Z,1035.64
2016-12-29T02:48:02.225Z,1035.66
2016-12-29T02:48:28.340Z,1035.63
2016-12-29T02:48:54.445Z,1035.6
2016-12-29T02:49:20.563Z,1035.59
2016-12-29T02:49:46.685Z,1035.54
2016-12-29T02:50:12.790Z,1035.58
2016-12-29T02:50:38.902Z,1035.55
2016-12-29T02:51:05.024Z,1035.56
2016-12-29T02:51:31.127Z,1035.54
2016-12-29T02:51:57.236Z,1035.52
2016-12-29T02:52:23.353Z,1035.53
2016-12-29T02:52:49.464Z,1035.53
2016-12-29T02:53:15.572Z,1035.54
2016-12-29T02:53:41.682Z,1035.53
2016-12-29T02:54:07.797Z,1035.55
2016-12-29T02:54:33.921Z,1035.51
2016-12-29T02:55:00.020Z,1035.5
2016-12-29T02:55:26.131Z,1035.49
2016-12-29T02:55:52.253Z,1035.47
2016-12-29T02:56:18.362Z,1035.47
2016-12-29T02:56:44.464Z,1035.52
2016-12-29T02:57:10.592Z,1035.5
2016-12-29T02:57:36.703Z,1035.49
2016-12-29T02:58:02.805Z,1035.47
2016-12-29T02:58:28.925Z,1035.48
2016-12-29T02:58:55.038Z,1035.44
2016-12-29T02:59:21.153Z,1035.45
2016-12-29T02:59:47.263Z,1035.48
2016-12-29T03:00:13.374Z,1035.46
2016-12-29T03:00:39.497Z,1035.47
2016-12-29T03:01:05.617Z,1035.49
2016-12-29T03:01:31.722Z,1035.51
2016-12-29T03:01:57.843Z,1035.49
2016-12-29T03:02:23.959Z,1035.5
2016-12-29T03:02:50.057Z,1035.48
2016-12-29T03:03:16.173Z,1035.5
2016-12-29T03:03:42.291Z,1035.53
2016-12-29T03:04:08.396Z,1035.51
2016-12-29T03:04:34.516Z,1035.52
2016-12-29T03:05:00.633Z,1035.51
2016-12-29T03:05:26.731Z,1035.48
2016-12-29T03:05:52.841Z,1035.5
2016-12-29T03:06:18.961Z,1035.52
2016-12-29T03:06:45.068Z,1035.54
2016-12-29T03:07:11.166Z,1035.56
2016-12-29T03:07:37.300Z,1035.54
2016-12-29T03:08:03.406Z,1035.53
2016-12-29T03:08:29.506Z,1035.52
2016-12-29T03:08:55.632Z,1035.51
2016-12-29T03:09:21.744Z,1035.53
2016-12-29T03:09:47.852Z,1035.53
2016-12-29T03:10:13.967Z,1035.51
2016-12-29T03:10:40.070Z,1035.52
2016-12-29T03:11:06.200Z,1035.53
2016-12-29T03:11:32.312Z,1035.52
2016-12-29T03:11:58.417Z,1035.51
2016-12-29T03:12:24.539Z,1035.51
2016-12-29T03:12:50.653Z,1035.52
2016-12-29T03:13:16.752Z,1035.48
2016-12-29T03:13:42.868Z,1035.51
2016-12-29T03:14:08.993Z,1035.5
2016-12-29T03:14:35.091Z,1035.51
2016-12-29T03:15:01.203Z,1035.45
2016-12-29T03:15:27.323Z,1035.49
2016-12-29T03:15:53.429Z,1035.49
2016-12-29T03:16:19.549Z,1035.46
2016-12-29T03:16:45.656Z,1035.52
2016-12-29T03:17:11.771Z,1035.49
2016-12-29T03:17:37.887Z,1035.49
2016-12-29T03:18:03.991Z,1035.53
2016-12-29T03:18:30.098Z,1035.52
2016-12-29T03:18:56.223Z,1035.52
2016-12-29T03:19:22.323Z,1035.54
2016-12-29T03:19:48.433Z,1035.52
2016-12-29T03:20:14.557Z,1035.53
2016-12-29T03:20:40.661Z,1035.54
2016-12-29T03:21:06.769Z,1035.52
2016-12-29T03:21:32.886Z,1035.52
2016-12-29T03:21:58.997Z,1035.5
2016-12-29T03:22:25.120Z,1035.47
2016-12-29T03:22:51.223Z,1035.52
2016-12-29T03:23:17.334Z,1035.49
2016-12-29T03:23:43.453Z,1035.51
2016-12-29T03:24:09.564Z,1035.47
2016-12-29T03:24:35.664Z,1035.44
2016-12-29T03:25:01.788Z,1035.48
2016-12-29T03:25:27.905Z,1035.43
2016-12-29T03:25:54.008Z,1035.45
2016-12-29T03:26:20.127Z,1035.42
2016-12-29T03:26:46.236Z,1035.44
2016-12-29T03:27:12.352Z,1035.45
2016-12-29T03:27:38.463Z,1035.43
2016-12-29T03:28:04.569Z,1035.44
2016-12-29T03:28:30.688Z,1035.43
2016-12-29T03:28:56.797Z,1035.42
2016-12-29T03:29:22.896Z,1035.37
2016-12-29T03:29:49.019Z,1035.38
2016-12-29T03:30:15.138Z,1035.42
2016-12-29T03:30:41.240Z,1035.42
2016-12-29T03:31:07.356Z,1035.39
2016-12-29T03:31:33.484Z,1035.37
2016-12-29T03:31:59.588Z,1035.37
2016-12-29T03:32:25.703Z,1035.36
2016-12-29T03:32:51.812Z,1035.35
2016-12-29T03:33:17.930Z,1035.36
2016-12-29T03:33:44.044Z,1035.34
2016-12-29T03:34:10.147Z,1035.34
2016-12-29T03:34:36.267Z,1035.33
2016-12-29T03:35:02.392Z,1035.31
2016-12-29T03:35:28.489Z,1035.34
2016-12-29T03:35:54.601Z,1035.32
2016-12-29T03:36:20.718Z,1035.3
2016-12-29T03:36:46.820Z,1035.3
2016-12-29T03:37:12.924Z,1035.32
2016-12-29T03:37:39.050Z,1035.34
2016-12-29T03:38:05.156Z,1035.29
2016-12-29T03:38:31.271Z,1035.31
2016-12-29T03:38:57.381Z,1035.34
2016-12-29T03:39:23.496Z,1035.34
2016-12-29T03:39:49.613Z,1035.34
2016-12-29T03:40:15.716Z,1035.35
2016-12-29T03:40:41.827Z,1035.33
2016-12-29T03:41:07.949Z,1035.34
2016-12-29T03:41:34.054Z,1035.4
2016-12-29T03:42:00.152Z,1035.39
2016-12-29T03:42:26.279Z,1035.39
2016-12-29T03:42:52.389Z,1035.4
2016-12-29T03:43:18.495Z,1035.39
2016-12-29T03:43:44.616Z,1035.36
2016-12-29T03:44:10.728Z,1035.43
2016-12-29T03:44:36.846Z,1035.41
2016-12-29T03:45:02.953Z,1035.4
2016-12-29T03:45:29.061Z,1035.39
2016-12-29T03:45:55.183Z,1035.39
2016-12-29T03:46:21.293Z,1035.36
2016-12-29T03:46:47.392Z,1035.37
2016-12-29T03:47:13.521Z,1035.37
2016-12-29T03:47:39.637Z,1035.32
2016-12-29T03:48:05.741Z,1035.3
2016-12-29T03:48:31.851Z,1035.34
2016-12-29T03:48:57.971Z,1035.34
2016-12-29T03:49:24.079Z,1035.33
2016-12-29T03:49:50.189Z,1035.34
2016-12-29T03:50:16.316Z,1035.32
2016-12-29T03:50:42.419Z,1035.36
2016-12-29T03:51:08.528Z,1035.38
2016-12-29T03:51:34.648Z,1035.35
2016-12-29T03:52:00.758Z,1035.34
2016-12-29T03:52:26.862Z,1035.34
2016-12-29T03:52:52.990Z,1035.34
2016-12-29T03:53:19.107Z,1035.35
2016-12-29T03:53:45.209Z,1035.34
2016-12-29T03:54:11.329Z,1035.33
2016-12-29T03:54:37.437Z,1035.34
2016-12-29T03:55:03.555Z,1035.34
2016-12-29T03:55:29.661Z,1035.28
2016-12-29T03:55:55.765Z,1035.32
2016-12-29T03:56:21.889Z,1035.31
2016-12-29T03:56:48.001Z,1035.26
2016-12-29T03:57:14.106Z,1035.3
2016-12-29T03:57:40.224Z,1035.27
2016-12-29T03:58:06.339Z,1035.27
2016-12-29T03:58:32.441Z,1035.28
2016-12-29T03:58:58.559Z,1035.28
2016-12-29T03:59:24.680Z,1035.28
2016-12-29T03:59:50.811Z,1035.29
2016-12-29T04:00:16.926Z,1035.29
2016-12-29T04:00:43.031Z,1035.28
2016-12-29T04:01:09.153Z,1035.27
2016-12-29T04:01:35.270Z,1035.29
2016-12-29T04:02:01.373Z,1035.24
2016-12-29T04:02:27.492Z,1035.29
2016-12-29T04:02:53.615Z,1035.28
2016-12-29T04:03:19.712Z,1035.27
2016-12-29T04:03:45.829Z,1035.27
2016-12-29T04:04:11.953Z,1035.24
2016-12-29T04:04:38.054Z,1035.28
2016-12-29T04:05:04.166Z,1035.3
2016-12-29T04:05:30.280Z,1035.28
2016-12-29T04:05:56.390Z,1035.24
2016-12-29T04:06:22.513Z,1035.26
2016-12-29T04:06:48.607Z,1035.24
2016-12-29T04:07:14.720Z,1035.23
2016-12-29T04:07:40.843Z,1035.23
2016-12-29T04:08:06.943Z,1035.22
2016-12-29T04:08:33.051Z,1035.2
2016-12-29T04:08:59.171Z,1035.2
2016-12-29T04:09:25.274Z,1035.19
2016-12-29T04:09:51.375Z,1035.16
2016-12-29T04:10:17.530Z,1035.12
2016-12-29T04:10:43.644Z,1035.11
2016-12-29T04:11:09.750Z,1035.12
2016-12-29T04:11:35.865Z,1035.11
2016-12-29T04:12:01.971Z,1035.12
2016-12-29T04:12:28.095Z,1035.12
2016-12-29T04:12:54.201Z,1035.08
2016-12-29T04:13:20.305Z,1035.09
2016-12-29T04:13:46.423Z,1035.11
2016-12-29T04:14:12.534Z,1035.12
2016-12-29T04:14:38.644Z,1035.1
2016-12-29T04:15:04.762Z,1035.11
2016-12-29T04:15:30.874Z,1035.14
2016-12-29T04:15:56.982Z,1035.09
2016-12-29T04:16:23.100Z,1035.12
2016-12-29T04:16:49.216Z,1035.11
2016-12-29T04:17:15.326Z,1035.14
2016-12-29T04:17:41.434Z,1035.16
2016-12-29T04:18:07.534Z,1035.16
2016-12-29T04:18:33.658Z,1035.14
2016-12-29T04:18:59.770Z,1035.16
2016-12-29T04:19:25.878Z,1035.18
2016-12-29T04:19:51.988Z,1035.18
2016-12-29T04:20:18.108Z,1035.18
2016-12-29T04:20:44.211Z,1035.19
2016-12-29T04:21:10.325Z,1035.22
2016-12-29T04:21:36.439Z,1035.22
2016-12-29T04:22:02.543Z,1035.22
2016-12-29T04:22:28.652Z,1035.24
2016-12-29T04:22:54.761Z,1035.23
2016-12-29T04:23:20.874Z,1035.24
2016-12-29T04:23:46.999Z,1035.23
2016-12-29T04:24:13.095Z,1035.26
2016-12-29T04:24:39.212Z,1035.25
2016-12-29T04:25:05.329Z,1035.25
2016-12-29T04:25:31.432Z,1035.21
2016-12-29T04:25:57.539Z,1035.21
2016-12-29T04:26:23.657Z,1035.22
2016-12-29T04:26:49.760Z,1035.24
2016-12-29T04:27:15.865Z,1035.22
2016-12-29T04:27:41.985Z,1035.23
2016-12-29T04:28:08.091Z,1035.25
2016-12-29T04:28:34.209Z,1035.21
2016-12-29T04:29:00.314Z,1035.24
2016-12-29T04:29:26.447Z,1035.23
2016-12-29T04:29:52.568Z,1035.23
2016-12-29T04:30:18.675Z,1035.24
2016-12-29T04:30:44.783Z,1035.23
2016-12-29T04:31:10.904Z,1035.25
2016-12-29T04:31:37.013Z,1035.24
2016-12-29T04:32:03.122Z,1035.26
2016-12-29T04:32:29.242Z,1035.22
2016-12-29T04:32:55.356Z,1035.26
2016-12-29T04:33:21.460Z,1035.25
2016-12-29T04:33:47.580Z,1035.24
2016-12-29T04:34:13.703Z,1035.29
2016-12-29T04:34:39.796Z,1035.24
2016-12-29T04:35:05.914Z,1035.24
2016-12-29T04:35:32.031Z,1035.27
2016-12-29T04:35:58.135Z,1035.28
2016-12-29T04:36:24.249Z,1035.23
2016-12-29T04:36:50.366Z,1035.27
2016-12-29T04:37:16.480Z,1035.23
2016-12-29T04:37:42.584Z,1035.23
2016-12-29T04:38:08.705Z,1035.22
2016-12-29T04:38:34.812Z,1035.21
2016-12-29T04:39:00.914Z,1035.21
2016-12-29T04:39:27.037Z,1035.2
2016-12-29T04:39:53.142Z,1035.18
2016-12-29T04:40:19.270Z,1035.18
2016-12-29T04:40:45.372Z,1035.16
2016-12-29T04:41:11.479Z,1035.18
2016-12-29T04:41:37.597Z,1035.16
2016-12-29T04:42:03.708Z,1035.15
2016-12-29T04:42:29.811Z,1035.09
2016-12-29T04:42:55.935Z,1035.12
2016-12-29T04:43:22.047Z,1035.1
2016-12-29T04:43:48.149Z,1035.1
2016-12-29T04:44:14.267Z,1035.08
2016-12-29T04:44:40.385Z,1035.09
2016-12-29T04:45:06.487Z,1035.12
2016-12-29T04:45:32.599Z,1035.11
2016-12-29T04:45:58.698Z,1035.1
2016-12-29T04:46:24.817Z,1035.09
2016-12-29T04:46:50.925Z,1035.12
2016-12-29T04:47:17.034Z,1035.11
2016-12-29T04:47:43.155Z,1035.1
2016-12-29T04:48:09.265Z,1035.16
2016-12-29T04:48:35.363Z,1035.12
2016-12-29T04:49:01.473Z,1035.14
2016-12-29T04:49:27.597Z,1035.13
2016-12-29T04:49:53.701Z,1035.16
2016-12-29T04:50:19.810Z,1035.17
2016-12-29T04:50:45.919Z,1035.18
2016-12-29T04:51:12.035Z,1035.2
2016-12-29T04:51:38.158Z,1035.17
2016-12-29T04:52:04.257Z,1035.18
2016-12-29T04:52:30.371Z,1035.19
2016-12-29T04:52:56.487Z,1035.2
2016-12-29T04:53:22.591Z,1035.2
2016-12-29T04:53:48.701Z,1035.22
2016-12-29T04:54:14.824Z,1035.21
2016-12-29T04:54:40.939Z,1035.18
2016-12-29T04:55:07.035Z,1035.21
2016-12-29T04:55:33.156Z,1035.22
2016-12-29T04:55:59.264Z,1035.15
2016-12-29T04:56:25.378Z,1035.2
2016-12-29T04:56:51.480Z,1035.2
2016-12-29T04:57:17.588Z,1035.2
2016-12-29T04:57:43.712Z,1035.19
2016-12-29T04:58:09.817Z,1035.22
2016-12-29T04:58:35.917Z,1035.18
2016-12-29T04:59:02.044Z,1035.18
2016-12-29T04:59:28.153Z,1035.21
2016-12-29T04:59:54.257Z,1035.17
2016-12-29T05:00:20.375Z,1035.21
2016-12-29T05:00:46.490Z,1035.23
2016-12-29T05:01:12.640Z,1035.21
2016-12-29T05:01:38.759Z,1035.22
2016-12-29T05:02:04.863Z,1035.26
2016-12-29T05:02:30.988Z,1035.2
2016-12-29T05:02:57.101Z,1035.23
2016-12-29T05:03:23.202Z,1035.23
2016-12-29T05:03:49.321Z,1035.25
2016-12-29T05:04:15.438Z,1035.24
2016-12-29T05:04:41.543Z,1035.26
2016-12-29T05:05:07.656Z,1035.27
2016-12-29T05:05:33.773Z,1035.28
2016-12-29T05:05:59.876Z,1035.26
2016-12-29T05:06:25.991Z,1035.27
2016-12-29T05:06:52.118Z,1035.26
2016-12-29T05:07:18.215Z,1035.3
2016-12-29T05:07:44.330Z,1035.29
2016-12-29T05:08:10.430Z,1035.32
2016-12-29T05:08:36.549Z,1035.35
2016-12-29T05:09:02.674Z,1035.33
2016-12-29T05:09:28.772Z,1035.33
2016-12-29T05:09:54.886Z,1035.33
2016-12-29T05:10:21.009Z,1035.32
2016-12-29T05:10:47.114Z,1035.33
2016-12-29T05:11:13.227Z,1035.34
2016-12-29T05:11:39.343Z,1035.33
2016-12-29T05:12:05.450Z,1035.37
2016-12-29T05:12:31.552Z,1035.34
2016-12-29T05:12:57.671Z,1035.34
2016-12-29T05:13:23.778Z,1035.3
2016-12-29T05:13:49.899Z,1035.29
2016-12-29T05:14:15.998Z,1035.31
2016-12-29T05:14:42.111Z,1035.32
2016-12-29T05:15:08.233Z,1035.34
2016-12-29T05:15:34.338Z,1035.35
2016-12-29T05:16:00.446Z,1035.35
2016-12-29T05:16:26.564Z,1035.32
2016-12-29T05:16:52.671Z,1035.34